Holloman Air Force Base
KHMN : now visible

Airfield :











YOU CAN JOIN US ON...

 
LOGIN :

Register | Disclaimer

   EN    FR    IT 

 









Legend :    VFR   Marginal VFR   IFR   Intensive IFR   Very Intensive IFR
Visi :
Ceiling :
>= 8 km
>= 3000ft
5 to 8 km
1000 to 3000 ft
1500m to 5 km
500 to 1000 ft
800 to 1500m
200 to 500 ft
< 800m
< 200 ft
Symbols :   Thunderstorms  Fog  Heavy snow  Heavy precipitations  Wind > 20 kt







- Airport Elevation : 4093 ft


KHMN - Holloman Air Force Base

CURRENT METAR :
  • 221058Z AUTO 15006KT 10SM CLR 17/00 A2999 RMK AO2 SLP091 T01681004 $

EXPIRED METARs :
  • 220958Z AUTO 11005KT 10SM CLR 19/M01 A2999 RMK AO2 SLP088 T01921008 $
  • 220858Z AUTO 00000KT 10SM CLR 20/M01 A2997 RMK AO2 SLP081 T01991007 50004 $

TAF TAF KHMN
Valid from the 22 at 09:00 until the 23 at 15:00 UTC


220904Z 2209/2315 15009KT 9999 BKN180 QNH2991INS
BECMG 2218/2219 20012G20KT 9999 BKN160 QNH2988INS
TEMPO 2223/2303 9000 -SHRA SCT080 BKN100
BECMG 2303/2304 24009KT 9999 BKN140 QNH2998INS
BECMG 2309/2310 VRB06KT 9999 SCT160 QNH3001INS TX26/2221Z TN15/2212Z
KZAB FIR / North America



MET'MAP, your aeronautical weather chart ! - Copyright ORBIFLY December 2007 - Disclaimer

ORBIFLY MET'MAP TEAM :

Programming & Development : Alexandra Zaïnal
Concept & Development : Baudouin d'Aumeries
Co-Development & Prog : Marc-Olivier Méhu
Technical & hardware support : Manuel Goepfert

Contact : metmap@orbifly.com




SOURCES & CREDITS :

   NOAA       Earth
Advisory